Reddick, IL (60961)

8:53 PM CST on December 10, 2016 (GMT -0600)
Morris | | Change Station
Active Advisory: Winter Weather Advisory

Elev 584 ft 41.43 °N, 88.42 °W | Updated 18 minutes ago

Snow
Snow
24 °F
Feels Like 16 °F
N
6
Wind Variable Wind from SE

Today
High -- | Low -- °F
--% Chance of Precip.
Yesterday
High -- | Low -- °F
Precip. -- in
Pressure 30.32 in
Visibility 3.0 miles
Clouds Scattered Clouds 1000 ft
Mostly Cloudy 4900 ft
Overcast 7000 ft
Windchill 16 °F
Dew Point 22 °F
Humidity 92%
Rainfall 0.03 in
Snow Depth Not available.
7:07 AM 4:24 PM
Waxing Gibbous, 88% visible
METAR KC09 110235Z AUTO 14005KT 3SM -SN SCT010 BKN049 OVC070 M05/M06 A3032 RMK AO2 T10471058
Pressure 30.32 in
Visibility 3.0 miles
Clouds Scattered Clouds 1000 ft
Mostly Cloudy 4900 ft
Overcast 7000 ft
Windchill 16 °F
Dew Point 22 °F
Humidity 92%
Rainfall 0.03 in
Snow Depth Not available.
7:07 AM 4:24 PM
Waxing Gibbous, 88% visible
METAR KC09 110235Z AUTO 14005KT 3SM -SN SCT010 BKN049 OVC070 M05/M06 A3032 RMK AO2 T10471058

10-Day Weather Forecast

Almanac

Astronomy

Dec. 10, 2016 Rise Set
Actual Time
Civil Twilight
Nautical Twilight
Astronomical Twilight
Moon
Length of Visible Light
Length of Day
Tomorrow will be .
, % of the Moon is Illuminated

Today's Extremes

State Highs State Lows

Community

WunderPhotos

Upload Photos

1,956,692 photos uploaded!

WunderBlog® & News

Nearby

Air Quality

  Air Quality AQ Index Pollutant
Not available.

Snow Depth

Station Depth Elevation

Earthquake Activity

City Distance Mag. Time & Date
Minimum magnitude displayed is 2.5.

Coastal Water Temperatures

Place Temperature

Stations

Nearby Weather Stations

Station Location Temp. Windchill Dew Point Humidity Wind Precip. Elev Updated Type
                   

Watches & Warnings

Winter Weather Advisory
Issued: 3:39 PM CST Dec. 10, 2016 – National Weather Service

... Winter Weather Advisory remains in effect until midnight CST
Sunday night...

* timing... snow will develop by evening and will persist tonight
through Sunday before diminishing Sunday evening.

* Snow accumulations... 3 to 6 inches of snow is expected to fall
through Sunday evening. The snow could mix with or chance to
rain for a period Sunday evening.

* Impacts... plan on difficult driving conditions.

Precautionary/preparedness actions...

A Winter Weather Advisory for snow means that periods of snow
will cause primarily travel difficulties. Be prepared for snow
covered roads and limited visibilities... and use caution while
driving.



Kjb